Little Compton, Rhode Island
Current Conditions -  °F | °C
As of 4:53 AM on Friday 24 Oct 2014 (Local Time) from KUUU Reporting Station
Overcast Overcast  
Wind Chill: 52°   Ceiling: 1300
Heat Index: 52°   Visibility: 10mi
Dew Point: 47°   Wind: 20mph
Humidity: 83%   Direction: 340°NNW
Pressure: 29.64"   Gusts: 25mph
Location:  41.51°N, 71.17°W
Report Text: KUUU 240853Z AUTO 34017G22KT 10SM OVC013 11/08 A2964 RMK AO2 SLP038 60000 T01110083 53005
Loading
Personal Weather Stations






























Interactive Weather Map
Tropical Storm Tracking
New forecast layout! Learn more

10-Day Weather Forecast

Advertisements
Track Severe Weather on mobile